createdAt,value
2018-08-28T00:00:22.821Z,98067.00
2018-08-28T00:02:54.438Z,98076.00
2018-08-28T00:05:26.394Z,98081.00
2018-08-28T00:07:58.200Z,98081.00
2018-08-28T00:10:30.115Z,98088.00
2018-08-28T00:13:01.783Z,98086.00
2018-08-28T00:15:33.634Z,98088.00
2018-08-28T00:18:05.341Z,98085.00
2018-08-28T00:20:37.141Z,98085.00
2018-08-28T00:23:09.060Z,98084.00
2018-08-28T00:25:40.866Z,98079.00
2018-08-28T00:28:12.739Z,98079.00
2018-08-28T00:30:44.525Z,98080.00
2018-08-28T00:33:16.286Z,98068.00
2018-08-28T00:35:48.012Z,98064.00
2018-08-28T00:38:19.694Z,98068.00
2018-08-28T00:40:51.349Z,98079.00
2018-08-28T00:43:23.078Z,98091.00
2018-08-28T00:45:54.761Z,98092.00
2018-08-28T00:48:26.561Z,98093.00
2018-08-28T00:50:58.359Z,98100.00
2018-08-28T00:53:30.039Z,98099.00
2018-08-28T00:56:01.762Z,98096.00
2018-08-28T00:58:33.562Z,98098.00
2018-08-28T01:01:05.502Z,98100.00
2018-08-28T01:03:37.351Z,98097.00
2018-08-28T01:06:09.113Z,98098.00
2018-08-28T01:08:40.925Z,98099.00
2018-08-28T01:11:12.753Z,98100.00
2018-08-28T01:13:44.401Z,98105.00
2018-08-28T01:16:16.349Z,98103.00
2018-08-28T01:18:48.054Z,98110.00
2018-08-28T01:21:19.768Z,98107.00
2018-08-28T01:23:51.663Z,98106.00
2018-08-28T01:26:23.489Z,98113.00
2018-08-28T01:28:55.356Z,98111.00
2018-08-28T01:31:27.212Z,98114.00
2018-08-28T01:33:59.199Z,98116.00
2018-08-28T01:36:31.140Z,98115.00
2018-08-28T01:39:03.114Z,98118.00
2018-08-28T01:41:34.911Z,98121.00
2018-08-28T01:44:06.657Z,98124.00
2018-08-28T01:46:38.435Z,98126.00
2018-08-28T01:49:10.245Z,98122.00
2018-08-28T01:51:42.033Z,98127.00
2018-08-28T01:54:13.750Z,98126.00
2018-08-28T01:56:45.350Z,98125.00
2018-08-28T01:59:17.090Z,98119.00
2018-08-28T02:01:48.864Z,98125.00
2018-08-28T02:04:20.517Z,98123.00
2018-08-28T02:06:52.274Z,98117.00
2018-08-28T02:09:24.311Z,98117.00
2018-08-28T02:11:56.212Z,98113.00
2018-08-28T02:14:27.966Z,98114.00
2018-08-28T02:16:59.562Z,98111.00
2018-08-28T02:19:31.376Z,98106.00
2018-08-28T02:22:03.621Z,98114.00
2018-08-28T02:24:35.309Z,98111.00
2018-08-28T02:27:07.380Z,98115.00
2018-08-28T02:29:39.262Z,98119.00
2018-08-28T02:32:10.962Z,98119.00
2018-08-28T02:34:42.645Z,98111.00
2018-08-28T02:37:14.289Z,98115.00
2018-08-28T02:39:46.037Z,98110.00
2018-08-28T02:42:17.715Z,98114.00
2018-08-28T02:44:49.357Z,98116.00
2018-08-28T02:47:21.213Z,98122.00
2018-08-28T02:49:52.884Z,98123.00
2018-08-28T02:52:24.634Z,98128.00
2018-08-28T02:54:56.422Z,98130.00
2018-08-28T02:57:28.185Z,98126.00
2018-08-28T03:00:00.007Z,98125.00
2018-08-28T03:02:31.691Z,98122.00
2018-08-28T03:05:03.422Z,98126.00
2018-08-28T03:07:35.218Z,98125.00
2018-08-28T03:10:06.913Z,98129.00
2018-08-28T03:12:38.794Z,98134.00
2018-08-28T03:15:10.606Z,98135.00
2018-08-28T03:17:42.526Z,98132.00
2018-08-28T03:20:14.316Z,98136.00
2018-08-28T03:22:46.278Z,98136.00
2018-08-28T03:25:17.930Z,98130.00
2018-08-28T03:27:49.862Z,98131.00
2018-08-28T03:30:21.782Z,98128.00
2018-08-28T03:32:53.418Z,98131.00
2018-08-28T03:35:25.143Z,98134.00
2018-08-28T03:37:56.822Z,98141.00
2018-08-28T03:40:28.665Z,98145.00
2018-08-28T03:43:00.455Z,98146.00
2018-08-28T03:45:32.214Z,98150.00
2018-08-28T03:48:03.937Z,98148.00
2018-08-28T03:50:35.722Z,98149.00
2018-08-28T03:53:07.817Z,98157.00
2018-08-28T03:55:39.636Z,98161.00
2018-08-28T03:58:11.312Z,98163.00
2018-08-28T04:00:43.070Z,98168.00
2018-08-28T04:03:14.729Z,98160.00
2018-08-28T04:05:46.553Z,98162.00
2018-08-28T04:08:18.125Z,98156.00
2018-08-28T04:10:50.182Z,98156.00
2018-08-28T04:13:21.960Z,98157.00
2018-08-28T04:15:53.714Z,98158.00
2018-08-28T04:18:25.507Z,98157.00
2018-08-28T04:20:57.215Z,98163.00
2018-08-28T04:23:29.007Z,98157.00
2018-08-28T04:26:00.758Z,98161.00
2018-08-28T04:28:32.393Z,98163.00
2018-08-28T04:31:04.195Z,98170.00
2018-08-28T04:33:35.828Z,98167.00
2018-08-28T04:36:07.579Z,98169.00
2018-08-28T04:38:39.372Z,98168.00
2018-08-28T04:41:11.209Z,98166.00
2018-08-28T04:43:42.948Z,98168.00
2018-08-28T04:46:14.752Z,98172.00
2018-08-28T04:48:46.529Z,98172.00
2018-08-28T04:51:18.245Z,98171.00
2018-08-28T04:53:50.118Z,98174.00
2018-08-28T04:56:21.766Z,98174.00
2018-08-28T04:58:53.640Z,98177.00
2018-08-28T05:01:25.407Z,98176.00
2018-08-28T05:03:57.120Z,98184.00
2018-08-28T05:06:28.824Z,98188.00
2018-08-28T05:09:00.634Z,98190.00
2018-08-28T05:11:32.305Z,98192.00
2018-08-28T05:14:03.979Z,98196.00
2018-08-28T05:16:35.615Z,98194.00
2018-08-28T05:19:07.511Z,98204.00
2018-08-28T05:21:39.466Z,98202.00
2018-08-28T05:24:11.301Z,98205.00
2018-08-28T05:26:43.090Z,98203.00
2018-08-28T05:29:15.018Z,98210.00
2018-08-28T05:31:46.684Z,98207.00
2018-08-28T05:34:18.429Z,98206.00
2018-08-28T05:36:50.215Z,98202.00
2018-08-28T05:39:21.951Z,98207.00
2018-08-28T05:41:53.628Z,98205.00
2018-08-28T05:44:25.394Z,98206.00
2018-08-28T05:46:57.357Z,98211.00
2018-08-28T05:49:29.191Z,98211.00
2018-08-28T05:52:00.996Z,98212.00
2018-08-28T05:54:32.816Z,98209.00
2018-08-28T05:57:04.477Z,98201.00
2018-08-28T05:59:36.222Z,98208.00
2018-08-28T06:02:07.997Z,98212.00
2018-08-28T06:04:39.742Z,98216.00
2018-08-28T06:07:11.416Z,98219.00
2018-08-28T06:09:43.074Z,98223.00
2018-08-28T06:12:14.863Z,98223.00
2018-08-28T06:14:46.637Z,98230.00
2018-08-28T06:17:18.429Z,98231.00
2018-08-28T06:19:50.121Z,98233.00
2018-08-28T06:22:21.853Z,98236.00
2018-08-28T06:24:53.533Z,98232.00
2018-08-28T06:27:25.298Z,98230.00
2018-08-28T06:29:57.042Z,98238.00
2018-08-28T06:32:28.771Z,98230.00
2018-08-28T06:35:00.683Z,98231.00
2018-08-28T06:37:32.433Z,98236.00
2018-08-28T06:40:04.194Z,98234.00
2018-08-28T06:42:36.070Z,98237.00
2018-08-28T06:45:08.002Z,98239.00
2018-08-28T06:47:39.795Z,98239.00
2018-08-28T06:50:11.628Z,98242.00
2018-08-28T06:52:43.489Z,98238.00
2018-08-28T06:55:15.530Z,98246.00
2018-08-28T06:57:47.416Z,98244.00
2018-08-28T07:00:19.181Z,98252.00
2018-08-28T07:02:51.045Z,98248.00
2018-08-28T07:05:23.265Z,98247.00
2018-08-28T07:07:55.138Z,98249.00
2018-08-28T07:10:26.816Z,98251.00
2018-08-28T07:12:58.764Z,98252.00
2018-08-28T07:15:30.687Z,98254.00
2018-08-28T07:18:02.744Z,98246.00
2018-08-28T07:20:34.595Z,98244.00
2018-08-28T07:23:06.515Z,98246.00
2018-08-28T07:25:38.468Z,98248.00
2018-08-28T07:28:10.156Z,98243.00
2018-08-28T07:30:41.817Z,98249.00
2018-08-28T07:33:13.690Z,98251.00
2018-08-28T07:35:45.440Z,98247.00
2018-08-28T07:38:17.273Z,98248.00
2018-08-28T07:40:48.935Z,98243.00
2018-08-28T07:43:20.703Z,98243.00
2018-08-28T07:45:52.387Z,98249.00
2018-08-28T07:48:24.112Z,98251.00
2018-08-28T07:50:56.489Z,98242.00
2018-08-28T07:53:28.291Z,98234.00
2018-08-28T07:55:59.914Z,98241.00
2018-08-28T07:58:31.649Z,98240.00
2018-08-28T08:01:03.559Z,98236.00
2018-08-28T08:03:35.379Z,98238.00
2018-08-28T08:06:07.181Z,98241.00
2018-08-28T08:08:38.989Z,98247.00
2018-08-28T08:11:10.674Z,98238.00
2018-08-28T08:13:42.422Z,98243.00
2018-08-28T08:16:14.123Z,98240.00
2018-08-28T08:18:46.030Z,98245.00
2018-08-28T08:21:17.900Z,98244.00
2018-08-28T08:23:49.653Z,98247.00
2018-08-28T08:26:21.331Z,98245.00
2018-08-28T08:28:53.053Z,98245.00
2018-08-28T08:31:24.845Z,98251.00
2018-08-28T08:33:56.740Z,98250.00
2018-08-28T08:36:28.381Z,98253.00
2018-08-28T08:39:00.141Z,98253.00
2018-08-28T08:41:31.864Z,98252.00
2018-08-28T08:44:03.532Z,98252.00
2018-08-28T08:46:35.509Z,98251.00
2018-08-28T08:49:07.450Z,98249.00
2018-08-28T08:51:39.129Z,98248.00
2018-08-28T08:54:11.017Z,98245.00
2018-08-28T08:56:42.750Z,98238.00
2018-08-28T08:59:14.592Z,98239.00
2018-08-28T09:01:46.365Z,98234.00
2018-08-28T09:04:18.018Z,98236.00
2018-08-28T09:06:50.714Z,98239.00
2018-08-28T09:09:22.365Z,98236.00
2018-08-28T09:11:54.009Z,98232.00
2018-08-28T09:14:25.770Z,98234.00
2018-08-28T09:16:57.430Z,98234.00
2018-08-28T09:19:29.087Z,98232.00
2018-08-28T09:22:00.826Z,98230.00
2018-08-28T09:24:32.488Z,98222.00
2018-08-28T09:27:04.270Z,98215.00
2018-08-28T09:29:36.132Z,98217.00
2018-08-28T09:32:08.115Z,98219.00
2018-08-28T09:34:40.040Z,98223.00
2018-08-28T09:37:11.722Z,98225.00
2018-08-28T09:39:43.550Z,98226.00
2018-08-28T09:42:15.230Z,98230.00
2018-08-28T09:44:46.967Z,98230.00
2018-08-28T09:47:18.635Z,98227.00
2018-08-28T09:49:50.407Z,98218.00
2018-08-28T09:52:22.121Z,98221.00
2018-08-28T09:54:54.003Z,98215.00
2018-08-28T09:57:25.808Z,98210.00
2018-08-28T09:59:57.541Z,98205.00
2018-08-28T10:02:29.300Z,98204.00
2018-08-28T10:05:01.048Z,98211.00
2018-08-28T10:07:32.869Z,98202.00
2018-08-28T10:10:04.757Z,98197.00
2018-08-28T10:12:36.445Z,98196.00
2018-08-28T10:15:08.438Z,98200.00
2018-08-28T10:17:40.130Z,98187.00
2018-08-28T10:20:12.234Z,98187.00
2018-08-28T10:22:43.884Z,98183.00
2018-08-28T10:25:15.726Z,98188.00
2018-08-28T10:27:47.394Z,98186.00
2018-08-28T10:30:19.200Z,98187.00
2018-08-28T10:32:51.106Z,98190.00
2018-08-28T10:35:22.788Z,98187.00
2018-08-28T10:37:54.442Z,98193.00
2018-08-28T10:40:26.169Z,98188.00
2018-08-28T10:42:57.842Z,98184.00
2018-08-28T10:45:29.686Z,98182.00
2018-08-28T10:48:01.499Z,98183.00
2018-08-28T10:50:33.128Z,98179.00
2018-08-28T10:53:04.902Z,98178.00
2018-08-28T10:55:36.550Z,98179.00
2018-08-28T10:58:08.298Z,98177.00
2018-08-28T11:00:40.069Z,98182.00
2018-08-28T11:03:11.847Z,98172.00
2018-08-28T11:05:43.477Z,98168.00
2018-08-28T11:08:15.213Z,98167.00
2018-08-28T11:10:46.894Z,98166.00
2018-08-28T11:13:18.734Z,98167.00
2018-08-28T11:15:50.405Z,98165.00
2018-08-28T11:18:22.169Z,98166.00
2018-08-28T11:20:53.958Z,98157.00
2018-08-28T11:23:25.581Z,98160.00
2018-08-28T11:25:57.330Z,98152.00
2018-08-28T11:28:29.021Z,98156.00
2018-08-28T11:31:00.679Z,98150.00
2018-08-28T11:33:32.390Z,98152.00
2018-08-28T11:36:04.181Z,98149.00
2018-08-28T11:38:36.160Z,98150.00
2018-08-28T11:41:08.098Z,98149.00
2018-08-28T11:43:39.940Z,98148.00
2018-08-28T11:46:11.721Z,98145.00
2018-08-28T11:48:43.586Z,98145.00
2018-08-28T11:51:15.561Z,98141.00
2018-08-28T11:53:47.281Z,98144.00
2018-08-28T11:56:18.963Z,98139.00
2018-08-28T11:58:50.850Z,98138.00
2018-08-28T12:01:22.507Z,98131.00
2018-08-28T12:03:54.422Z,98132.00
2018-08-28T12:06:26.232Z,98126.00
2018-08-28T12:08:57.940Z,98121.00
2018-08-28T12:11:29.848Z,98124.00
2018-08-28T12:14:01.482Z,98120.00
2018-08-28T12:16:33.229Z,98117.00
2018-08-28T12:19:05.073Z,98111.00
2018-08-28T12:21:36.769Z,98111.00
2018-08-28T12:24:08.138Z,98110.00
2018-08-28T12:26:39.882Z,98106.00
2018-08-28T12:29:11.697Z,98103.00
2018-08-28T12:31:43.373Z,98097.00
2018-08-28T12:34:15.128Z,98087.00
2018-08-28T12:36:46.887Z,98083.00
2018-08-28T12:39:18.736Z,98084.00
2018-08-28T12:41:50.544Z,98084.00
2018-08-28T12:44:22.283Z,98084.00
2018-08-28T12:46:54.320Z,98076.00
2018-08-28T12:49:26.035Z,98076.00
2018-08-28T12:51:57.779Z,98069.00
2018-08-28T12:54:29.501Z,98070.00
2018-08-28T12:57:01.259Z,98069.00
2018-08-28T12:59:33.196Z,98064.00
2018-08-28T13:02:05.044Z,98060.00
2018-08-28T13:04:36.665Z,98060.00
2018-08-28T13:07:08.325Z,98056.00
2018-08-28T13:09:40.093Z,98056.00
2018-08-28T13:12:11.837Z,98051.00
2018-08-28T13:14:43.704Z,98050.00
2018-08-28T13:17:15.586Z,98048.00
2018-08-28T13:19:47.441Z,98043.00
2018-08-28T13:22:19.374Z,98044.00
2018-08-28T13:24:51.263Z,98040.00
2018-08-28T13:27:23.048Z,98044.00
2018-08-28T13:29:54.875Z,98038.00
2018-08-28T13:32:26.655Z,98033.00
2018-08-28T13:34:58.365Z,98028.00
2018-08-28T13:37:30.034Z,98029.00
2018-08-28T13:40:01.871Z,98026.00
2018-08-28T13:42:33.547Z,98029.00
2018-08-28T13:45:05.313Z,98027.00
2018-08-28T13:47:37.668Z,98018.00
2018-08-28T13:50:09.524Z,98016.00
2018-08-28T13:52:41.203Z,98017.00
2018-08-28T13:55:12.966Z,98022.00
2018-08-28T13:57:44.797Z,98015.00
2018-08-28T14:00:16.822Z,98011.00
2018-08-28T14:02:48.578Z,98013.00
2018-08-28T14:05:20.385Z,98013.00
2018-08-28T14:07:52.294Z,98007.00
2018-08-28T14:10:24.041Z,98010.00
2018-08-28T14:12:55.791Z,98009.00
2018-08-28T14:15:27.437Z,98005.00
2018-08-28T14:17:59.305Z,98003.00
2018-08-28T14:20:31.234Z,97997.00
2018-08-28T14:23:03.090Z,97993.00
2018-08-28T14:25:34.890Z,97992.00
2018-08-28T14:28:06.856Z,97995.00
2018-08-28T14:30:38.684Z,97991.00
2018-08-28T14:33:10.359Z,97989.00
2018-08-28T14:35:42.175Z,97985.00
2018-08-28T14:38:14.070Z,97987.00
2018-08-28T14:40:45.731Z,97981.00
2018-08-28T14:43:17.418Z,97983.00
2018-08-28T14:45:49.166Z,97979.00
2018-08-28T14:48:20.948Z,97983.00
2018-08-28T14:50:52.666Z,97984.00
2018-08-28T14:53:24.536Z,97979.00
2018-08-28T14:55:56.327Z,97984.00
2018-08-28T14:58:28.289Z,97983.00
2018-08-28T15:01:00.082Z,97984.00
2018-08-28T15:03:31.858Z,97988.00
2018-08-28T15:06:03.549Z,97978.00
2018-08-28T15:08:35.222Z,97979.00
2018-08-28T15:11:07.137Z,97973.00
2018-08-28T15:13:38.922Z,97976.00
2018-08-28T15:16:10.576Z,97971.00
2018-08-28T15:18:42.880Z,97972.00
2018-08-28T15:21:14.597Z,97973.00
2018-08-28T15:23:46.258Z,97975.00
2018-08-28T15:26:18.015Z,97981.00
2018-08-28T15:28:49.789Z,97982.00
2018-08-28T15:31:21.449Z,97977.00
2018-08-28T15:33:53.223Z,97980.00
2018-08-28T15:36:25.075Z,97973.00
2018-08-28T15:38:56.791Z,97968.00
2018-08-28T15:41:28.578Z,97962.00
2018-08-28T15:44:00.311Z,97968.00
2018-08-28T15:46:31.991Z,97961.00
2018-08-28T15:49:03.828Z,97963.00
2018-08-28T15:51:35.780Z,97958.00
2018-08-28T15:54:07.806Z,97959.00
2018-08-28T15:56:39.551Z,97956.00
2018-08-28T15:59:11.687Z,97957.00
2018-08-28T16:01:43.462Z,97955.00
2018-08-28T16:04:21.206Z,97955.00
2018-08-28T16:06:53.401Z,97953.00
2018-08-28T16:09:25.185Z,97951.00
2018-08-28T16:11:56.939Z,97952.00
2018-08-28T16:14:28.687Z,97952.00
2018-08-28T16:17:00.662Z,97952.00
2018-08-28T16:19:32.443Z,97953.00
2018-08-28T16:22:04.991Z,97952.00
2018-08-28T16:24:36.669Z,97947.00
2018-08-28T16:27:08.518Z,97952.00
2018-08-28T16:29:40.187Z,97951.00
2018-08-28T16:32:11.937Z,97950.00
2018-08-28T16:34:43.611Z,97945.00
2018-08-28T16:37:15.265Z,97938.00
2018-08-28T16:39:46.999Z,97939.00
2018-08-28T16:42:18.784Z,97934.00
2018-08-28T16:44:50.609Z,97933.00
2018-08-28T16:47:22.626Z,97934.00
2018-08-28T16:49:54.473Z,97933.00
2018-08-28T16:52:26.354Z,97940.00
2018-08-28T16:54:58.213Z,97938.00
2018-08-28T16:57:30.038Z,97931.00
2018-08-28T17:00:01.839Z,97932.00
2018-08-28T17:02:33.564Z,97932.00
2018-08-28T17:05:05.454Z,97931.00
2018-08-28T17:07:37.085Z,97929.00
2018-08-28T17:10:09.021Z,97927.00
2018-08-28T17:12:40.841Z,97927.00
2018-08-28T17:15:12.752Z,97926.00
2018-08-28T17:17:44.511Z,97926.00
2018-08-28T17:20:16.319Z,97927.00
2018-08-28T17:22:48.026Z,97926.00
2018-08-28T17:25:19.738Z,97924.00
2018-08-28T17:27:51.542Z,97931.00
2018-08-28T17:30:23.217Z,97933.00
2018-08-28T17:32:54.957Z,97935.00
2018-08-28T17:35:26.742Z,97936.00
2018-08-28T17:37:58.482Z,97937.00
2018-08-28T17:40:30.361Z,97936.00
2018-08-28T17:43:02.093Z,97936.00
2018-08-28T17:45:33.879Z,97938.00
2018-08-28T17:48:05.677Z,97941.00
2018-08-28T17:50:37.573Z,97940.00
2018-08-28T17:53:09.346Z,97943.00
2018-08-28T17:55:41.119Z,97942.00
2018-08-28T17:58:12.857Z,97944.00
2018-08-28T18:00:44.517Z,97940.00
2018-08-28T18:03:16.268Z,97945.00
2018-08-28T18:05:47.948Z,97945.00
2018-08-28T18:08:19.613Z,97951.00
2018-08-28T18:10:51.434Z,97955.00
2018-08-28T18:13:23.093Z,97957.00
2018-08-28T18:15:54.781Z,97966.00
2018-08-28T18:18:26.639Z,97969.00
2018-08-28T18:20:58.370Z,97967.00
2018-08-28T18:23:30.061Z,97967.00
2018-08-28T18:26:01.901Z,97969.00
2018-08-28T18:28:33.566Z,97965.00
2018-08-28T18:31:05.414Z,97966.00
2018-08-28T18:33:37.086Z,97968.00
2018-08-28T18:36:08.956Z,97963.00
2018-08-28T18:38:40.691Z,97969.00
2018-08-28T18:41:12.631Z,97972.00
2018-08-28T18:43:44.206Z,97978.00
2018-08-28T18:46:15.882Z,97973.00
2018-08-28T18:48:47.618Z,97979.00
2018-08-28T18:51:19.281Z,97970.00
2018-08-28T18:53:51.061Z,97973.00
2018-08-28T18:56:22.902Z,97978.00
2018-08-28T18:58:54.573Z,97978.00
2018-08-28T19:01:26.242Z,97981.00
2018-08-28T19:03:58.070Z,97980.00
2018-08-28T19:06:29.755Z,97976.00
2018-08-28T19:09:01.543Z,97978.00
2018-08-28T19:11:33.157Z,97977.00
2018-08-28T19:14:05.033Z,97974.00
2018-08-28T19:16:36.814Z,97978.00
2018-08-28T19:19:10.029Z,97976.00
2018-08-28T19:21:41.921Z,97978.00
2018-08-28T19:24:13.831Z,97981.00
2018-08-28T19:26:45.441Z,97982.00
2018-08-28T19:29:17.222Z,97982.00
2018-08-28T19:31:48.996Z,97981.00
2018-08-28T19:34:20.712Z,97980.00
2018-08-28T19:36:52.514Z,97976.00
2018-08-28T19:39:24.144Z,97982.00
2018-08-28T19:41:55.889Z,97979.00
2018-08-28T19:44:27.754Z,97977.00
2018-08-28T19:46:59.425Z,97976.00
2018-08-28T19:49:31.190Z,97975.00
2018-08-28T19:52:02.837Z,97975.00
2018-08-28T19:54:34.701Z,97971.00
2018-08-28T19:57:06.719Z,97973.00
2018-08-28T19:59:38.396Z,97967.00
2018-08-28T20:02:10.265Z,97966.00
2018-08-28T20:04:42.048Z,97966.00
2018-08-28T20:07:13.757Z,97963.00
2018-08-28T20:09:45.497Z,97968.00
2018-08-28T20:12:17.122Z,97971.00
2018-08-28T20:14:48.862Z,97975.00
2018-08-28T20:17:20.696Z,97973.00
2018-08-28T20:19:52.505Z,97977.00
2018-08-28T20:22:24.337Z,97979.00
2018-08-28T20:24:56.116Z,97978.00
2018-08-28T20:27:27.884Z,97976.00
2018-08-28T20:29:59.724Z,97981.00
2018-08-28T20:32:31.479Z,97981.00
2018-08-28T20:35:03.265Z,97980.00
2018-08-28T20:37:34.999Z,97971.00
2018-08-28T20:40:07.100Z,97970.00
2018-08-28T20:42:38.745Z,97970.00
2018-08-28T20:45:10.680Z,97973.00
2018-08-28T20:47:42.592Z,97971.00
2018-08-28T20:50:14.386Z,97968.00
2018-08-28T20:52:46.265Z,97964.00
2018-08-28T20:55:18.074Z,97968.00
2018-08-28T20:57:49.836Z,97963.00
2018-08-28T21:00:21.461Z,97964.00
2018-08-28T21:02:53.125Z,97961.00
2018-08-28T21:05:28.197Z,97962.00
2018-08-28T21:08:01.155Z,97967.00
2018-08-28T21:10:33.085Z,97968.00
2018-08-28T21:13:05.093Z,97969.00
2018-08-28T21:15:36.933Z,97967.00
2018-08-28T21:18:08.870Z,97963.00
2018-08-28T21:20:40.540Z,97960.00
2018-08-28T21:23:12.322Z,97962.00
2018-08-28T21:25:44.053Z,97953.00
2018-08-28T21:28:15.732Z,97950.00
2018-08-28T21:30:47.600Z,97949.00
2018-08-28T21:33:19.639Z,97953.00
2018-08-28T21:35:51.611Z,97954.00
2018-08-28T21:38:23.454Z,97947.00
2018-08-28T21:40:55.208Z,97945.00
2018-08-28T21:43:26.972Z,97945.00
2018-08-28T21:45:58.778Z,97940.00
2018-08-28T21:48:30.415Z,97946.00
2018-08-28T21:51:02.251Z,97944.00
2018-08-28T21:53:34.161Z,97944.00
2018-08-28T21:56:05.894Z,97936.00
2018-08-28T21:58:37.620Z,97938.00
2018-08-28T22:01:12.435Z,97935.00
2018-08-28T22:03:44.321Z,97934.00
2018-08-28T22:06:21.064Z,97931.00
2018-08-28T22:08:52.762Z,97929.00
2018-08-28T22:11:24.636Z,97923.00
2018-08-28T22:13:56.382Z,97922.00
2018-08-28T22:16:27.946Z,97911.00
2018-08-28T22:18:59.886Z,97919.00
2018-08-28T22:21:31.667Z,97920.00
2018-08-28T22:24:03.408Z,97924.00
2018-08-28T22:26:35.321Z,97916.00
2018-08-28T22:29:07.082Z,97915.00
2018-08-28T22:31:38.821Z,97916.00
2018-08-28T22:34:10.748Z,97913.00
2018-08-28T22:36:42.553Z,97909.00
2018-08-28T22:39:14.202Z,97912.00
2018-08-28T22:41:46.144Z,97909.00
2018-08-28T22:44:17.789Z,97906.00
2018-08-28T22:46:49.473Z,97905.00
2018-08-28T22:49:21.254Z,97905.00
2018-08-28T22:51:52.968Z,97903.00
2018-08-28T22:54:24.741Z,97905.00
2018-08-28T22:56:56.532Z,97902.00
2018-08-28T22:59:28.289Z,97905.00
2018-08-28T23:02:00.029Z,97905.00
2018-08-28T23:04:32.012Z,97911.00
2018-08-28T23:07:03.885Z,97905.00
2018-08-28T23:09:35.510Z,97903.00
2018-08-28T23:12:07.263Z,97901.00
2018-08-28T23:14:39.000Z,97903.00
2018-08-28T23:17:10.792Z,97904.00
2018-08-28T23:19:42.622Z,97902.00
2018-08-28T23:22:14.401Z,97899.00
2018-08-28T23:24:46.058Z,97891.00
2018-08-28T23:27:17.993Z,97893.00
2018-08-28T23:29:49.762Z,97895.00
2018-08-28T23:32:21.537Z,97898.00
2018-08-28T23:34:53.276Z,97896.00
2018-08-28T23:37:25.028Z,97891.00
2018-08-28T23:39:56.750Z,97886.00
2018-08-28T23:42:28.762Z,97888.00
2018-08-28T23:45:00.514Z,97890.00
2018-08-28T23:47:32.288Z,97882.00
2018-08-28T23:50:04.052Z,97878.00
2018-08-28T23:52:35.897Z,97879.00
2018-08-28T23:55:07.753Z,97876.00
2018-08-28T23:57:39.522Z,97876.00
